createdAt,value
2019-02-09T00:00:24.888Z,83.28
2019-02-09T00:02:53.158Z,82.93
2019-02-09T00:05:21.457Z,83.72
2019-02-09T00:07:49.835Z,84.09
2019-02-09T00:10:18.125Z,84.28
2019-02-09T00:12:46.436Z,84.39
2019-02-09T00:15:14.998Z,84.75
2019-02-09T00:17:43.354Z,84.92
2019-02-09T00:20:16.939Z,84.89
2019-02-09T00:22:45.245Z,84.99
2019-02-09T00:25:21.403Z,84.97
2019-02-09T00:27:49.730Z,84.81
2019-02-09T00:30:19.679Z,84.96
2019-02-09T00:32:48.062Z,85.11
2019-02-09T00:35:19.764Z,85.09
2019-02-09T00:37:48.072Z,85.18
2019-02-09T00:40:21.676Z,85.25
2019-02-09T00:42:50.233Z,85.36
2019-02-09T00:45:20.865Z,85.45
2019-02-09T00:47:49.158Z,85.80
2019-02-09T00:50:18.812Z,85.75
2019-02-09T00:52:47.092Z,85.72
2019-02-09T00:55:18.354Z,86.01
2019-02-09T00:57:46.704Z,86.28
2019-02-09T01:00:20.404Z,86.35
2019-02-09T01:02:48.846Z,86.51
2019-02-09T01:05:20.354Z,86.60
2019-02-09T01:07:48.631Z,86.87
2019-02-09T01:10:18.267Z,87.16
2019-02-09T01:12:46.560Z,87.54
2019-02-09T01:15:18.935Z,87.53
2019-02-09T01:17:47.703Z,87.41
2019-02-09T01:20:18.887Z,87.90
2019-02-09T01:22:47.182Z,87.71
2019-02-09T01:25:15.731Z,87.94
2019-02-09T01:27:44.033Z,88.07
2019-02-09T01:30:20.777Z,88.14
2019-02-09T01:32:49.416Z,88.15
2019-02-09T01:35:18.732Z,87.82
2019-02-09T01:37:47.686Z,87.85
2019-02-09T01:40:18.815Z,87.84
2019-02-09T01:42:47.099Z,87.80
2019-02-09T01:45:19.113Z,87.69
2019-02-09T01:47:47.391Z,87.47
2019-02-09T01:50:18.798Z,87.13
2019-02-09T01:52:47.433Z,87.27
2019-02-09T01:55:15.807Z,87.28
2019-02-09T01:57:44.095Z,87.29
2019-02-09T02:00:17.569Z,87.44
2019-02-09T02:02:46.303Z,87.59
2019-02-09T02:05:16.231Z,87.74
2019-02-09T02:07:44.648Z,87.86
2019-02-09T02:10:21.830Z,87.97
2019-02-09T02:12:50.197Z,88.07
2019-02-09T02:15:19.483Z,88.40
2019-02-09T02:17:47.831Z,88.57
2019-02-09T02:20:25.313Z,88.42
2019-02-09T02:22:53.593Z,88.61
2019-02-09T02:25:23.646Z,88.64
2019-02-09T02:27:51.989Z,88.51
2019-02-09T02:30:23.399Z,88.35
2019-02-09T02:32:52.038Z,88.33
2019-02-09T02:35:20.793Z,88.31
2019-02-09T02:37:49.111Z,88.31
2019-02-09T02:40:19.845Z,88.18
2019-02-09T02:42:48.585Z,87.90
2019-02-09T02:45:19.126Z,87.83
2019-02-09T02:47:47.569Z,87.83
2019-02-09T02:50:18.246Z,87.87
2019-02-09T02:52:46.634Z,87.81
2019-02-09T02:55:17.532Z,87.57
2019-02-09T02:57:45.915Z,87.56
2019-02-09T03:00:20.265Z,87.26
2019-02-09T03:02:48.559Z,87.20
2019-02-09T03:05:21.442Z,87.19
2019-02-09T03:07:49.930Z,87.06
2019-02-09T03:10:18.303Z,86.93
2019-02-09T03:12:46.658Z,86.47
2019-02-09T03:15:17.854Z,86.91
2019-02-09T03:17:46.489Z,86.98
2019-02-09T03:20:19.302Z,86.94
2019-02-09T03:22:48.335Z,86.90
2019-02-09T03:25:24.598Z,86.71
2019-02-09T03:27:52.941Z,86.74
2019-02-09T03:30:23.366Z,86.66
2019-02-09T03:32:51.727Z,86.72
2019-02-09T03:35:20.490Z,86.71
2019-02-09T03:37:48.766Z,86.74
2019-02-09T03:40:19.794Z,86.48
2019-02-09T03:42:48.164Z,86.72
2019-02-09T03:45:19.631Z,86.63
2019-02-09T03:47:47.925Z,86.49
2019-02-09T03:50:18.557Z,86.48
2019-02-09T03:52:47.120Z,86.43
2019-02-09T03:55:15.496Z,86.33
2019-02-09T03:57:43.887Z,86.32
2019-02-09T04:00:17.356Z,86.32
2019-02-09T04:02:45.725Z,86.29
2019-02-09T04:05:14.765Z,86.30
2019-02-09T04:07:43.222Z,86.24
2019-02-09T04:10:19.574Z,86.20
2019-02-09T04:12:48.171Z,86.16
2019-02-09T04:15:19.827Z,86.09
2019-02-09T04:17:48.408Z,86.00
2019-02-09T04:20:18.554Z,85.93
2019-02-09T04:22:47.122Z,85.99
2019-02-09T04:25:17.469Z,85.95
2019-02-09T04:27:45.815Z,85.89
2019-02-09T04:30:19.255Z,85.83
2019-02-09T04:32:47.803Z,85.82
2019-02-09T04:35:16.198Z,85.78
2019-02-09T04:37:44.545Z,85.52
2019-02-09T04:40:21.400Z,85.42
2019-02-09T04:42:49.690Z,85.12
2019-02-09T04:45:18.704Z,84.99
2019-02-09T04:47:47.081Z,84.87
2019-02-09T04:50:16.699Z,84.85
2019-02-09T04:52:45.480Z,84.54
2019-02-09T04:55:16.599Z,84.13
2019-02-09T04:57:44.879Z,83.92
2019-02-09T05:00:30.628Z,83.87
2019-02-09T05:02:59.407Z,83.20
2019-02-09T05:05:27.884Z,83.30
2019-02-09T05:07:56.257Z,83.20
2019-02-09T05:10:25.293Z,82.66
2019-02-09T05:12:53.621Z,82.63
2019-02-09T05:15:22.549Z,82.29
2019-02-09T05:17:50.825Z,82.43
2019-02-09T05:20:20.976Z,82.67
2019-02-09T05:22:49.416Z,83.23
2019-02-09T05:25:17.986Z,84.11
2019-02-09T05:27:46.280Z,84.85
2019-02-09T05:30:28.730Z,85.54
2019-02-09T05:32:57.208Z,86.06
2019-02-09T05:35:25.833Z,86.84
2019-02-09T05:37:54.107Z,87.02
2019-02-09T05:40:23.976Z,87.14
2019-02-09T05:42:52.680Z,87.19
2019-02-09T05:45:22.944Z,87.13
2019-02-09T05:47:51.590Z,87.38
2019-02-09T05:50:20.935Z,87.30
2019-02-09T05:52:49.265Z,87.14
2019-02-09T05:55:18.495Z,86.94
2019-02-09T05:57:47.351Z,86.55
2019-02-09T06:00:26.467Z,86.33
2019-02-09T06:02:54.761Z,86.30
2019-02-09T06:05:23.042Z,85.86
2019-02-09T06:07:51.338Z,85.16
2019-02-09T06:10:20.287Z,85.40
2019-02-09T06:12:48.988Z,84.74
2019-02-09T06:15:25.941Z,84.51
2019-02-09T06:17:54.261Z,84.10
2019-02-09T06:20:31.970Z,83.78
2019-02-09T06:23:00.269Z,83.65
2019-02-09T06:25:28.953Z,83.38
2019-02-09T06:27:58.008Z,83.03
2019-02-09T06:30:31.415Z,82.89
2019-02-09T06:32:59.701Z,82.99
2019-02-09T06:35:28.466Z,82.36
2019-02-09T06:37:57.573Z,82.42
2019-02-09T06:40:26.102Z,82.26
2019-02-09T06:42:55.295Z,81.99
2019-02-09T06:45:26.908Z,81.93
2019-02-09T06:48:16.311Z,81.67
2019-02-09T06:50:44.603Z,81.04
2019-02-09T06:53:12.899Z,80.85
2019-02-09T06:55:41.220Z,80.73
2019-02-09T06:58:09.523Z,80.64
2019-02-09T07:00:37.801Z,80.59
2019-02-09T07:03:06.079Z,80.28
2019-02-09T07:05:34.542Z,80.24
2019-02-09T07:08:03.113Z,80.41
2019-02-09T07:10:31.504Z,80.69
2019-02-09T07:12:59.839Z,81.08
2019-02-09T07:15:36.474Z,81.30
2019-02-09T07:18:06.324Z,81.42
2019-02-09T07:20:34.789Z,81.37
2019-02-09T07:23:03.083Z,81.45
2019-02-09T07:25:31.392Z,81.59
2019-02-09T07:27:59.672Z,81.43
2019-02-09T07:30:31.149Z,81.43
2019-02-09T07:33:00.234Z,81.13
2019-02-09T07:35:28.587Z,80.77
2019-02-09T07:37:56.921Z,80.69
2019-02-09T07:40:26.145Z,80.51
2019-02-09T07:42:54.930Z,80.26
2019-02-09T07:45:28.182Z,80.08
2019-02-09T07:47:56.917Z,80.68
2019-02-09T07:50:27.258Z,80.99
2019-02-09T07:52:55.627Z,81.41
2019-02-09T07:55:24.967Z,82.17
2019-02-09T07:57:53.330Z,82.52
2019-02-09T08:00:32.263Z,82.90
2019-02-09T08:03:00.812Z,83.20
2019-02-09T08:05:30.682Z,83.38
2019-02-09T08:07:59.320Z,83.52
2019-02-09T08:10:36.679Z,83.40
2019-02-09T08:13:08.964Z,83.33
2019-02-09T08:15:37.545Z,83.60
2019-02-09T08:18:07.590Z,83.52
2019-02-09T08:20:35.949Z,83.62
2019-02-09T08:23:10.378Z,82.50
2019-02-09T08:25:40.218Z,82.30
2019-02-09T08:28:11.091Z,81.82
2019-02-09T08:30:47.089Z,81.40
2019-02-09T08:33:15.376Z,81.24
2019-02-09T08:35:43.858Z,81.06
2019-02-09T08:38:13.480Z,80.90
2019-02-09T08:40:41.842Z,80.68
2019-02-09T08:43:10.206Z,79.87
2019-02-09T08:45:38.767Z,79.14
2019-02-09T08:48:07.486Z,79.52
2019-02-09T08:50:48.230Z,79.60
2019-02-09T08:53:16.822Z,79.44
2019-02-09T08:55:45.386Z,79.61
2019-02-09T08:58:13.691Z,79.81
2019-02-09T09:00:42.257Z,79.57
2019-02-09T09:03:10.560Z,79.24
2019-02-09T09:05:38.848Z,79.61
2019-02-09T09:08:07.228Z,79.17
2019-02-09T09:10:35.600Z,78.82
2019-02-09T09:13:04.641Z,78.96
2019-02-09T09:15:44.670Z,78.67
2019-02-09T09:18:13.409Z,78.24
2019-02-09T09:20:53.843Z,78.10
2019-02-09T09:23:22.133Z,77.64
2019-02-09T09:25:50.435Z,77.20
2019-02-09T09:28:18.716Z,75.99
2019-02-09T09:30:47.260Z,75.99
2019-02-09T09:33:15.956Z,75.36
2019-02-09T09:35:44.280Z,74.39
2019-02-09T09:38:12.745Z,73.13
2019-02-09T09:40:43.286Z,73.46
2019-02-09T09:43:11.842Z,71.91
2019-02-09T09:45:42.102Z,71.54
2019-02-09T09:48:19.758Z,70.33
2019-02-09T09:50:48.133Z,69.56
2019-02-09T09:53:16.437Z,70.15
2019-02-09T09:55:45.079Z,69.33
2019-02-09T09:58:13.544Z,69.26
2019-02-09T10:00:41.841Z,69.34
2019-02-09T10:03:10.428Z,69.37
2019-02-09T10:05:38.736Z,69.04
2019-02-09T10:08:07.188Z,68.43
2019-02-09T10:10:35.744Z,68.26
2019-02-09T10:13:04.601Z,68.69
2019-02-09T10:15:32.915Z,68.00
2019-02-09T10:18:01.211Z,67.66
2019-02-09T10:20:29.678Z,67.74
2019-02-09T10:22:58.289Z,68.12
2019-02-09T10:25:26.669Z,67.98
2019-02-09T10:27:56.695Z,67.41
2019-02-09T10:30:27.606Z,66.66
2019-02-09T10:32:56.189Z,66.17
2019-02-09T10:35:24.505Z,65.60
2019-02-09T10:37:53.168Z,66.22
2019-02-09T10:40:24.686Z,66.20
2019-02-09T10:42:53.329Z,65.86
2019-02-09T10:45:23.571Z,65.58
2019-02-09T10:47:51.860Z,64.86
2019-02-09T10:50:25.759Z,64.22
2019-02-09T10:52:54.127Z,63.54
2019-02-09T10:55:22.885Z,63.01
2019-02-09T10:57:51.560Z,63.96
2019-02-09T11:00:28.825Z,63.87
2019-02-09T11:02:57.297Z,63.95
2019-02-09T11:05:25.606Z,63.64
2019-02-09T11:07:53.920Z,63.48
2019-02-09T11:10:23.853Z,63.84
2019-02-09T11:12:52.233Z,64.54
2019-02-09T11:15:24.159Z,64.67
2019-02-09T11:17:52.917Z,64.86
2019-02-09T11:20:23.755Z,65.18
2019-02-09T11:22:52.545Z,65.05
2019-02-09T11:25:25.579Z,65.31
2019-02-09T11:27:54.079Z,65.29
2019-02-09T11:30:27.012Z,64.50
2019-02-09T11:33:01.646Z,65.18
2019-02-09T11:35:25.703Z,65.86
2019-02-09T11:37:54.037Z,65.76
2019-02-09T11:40:30.640Z,65.90
2019-02-09T11:43:00.027Z,65.75
2019-02-09T11:45:30.579Z,65.80
2019-02-09T11:47:58.884Z,65.89
2019-02-09T11:50:27.588Z,65.61
2019-02-09T11:52:55.882Z,65.83
2019-02-09T11:55:24.216Z,64.38
2019-02-09T11:57:52.675Z,64.63
2019-02-09T12:00:23.743Z,64.18
2019-02-09T12:02:52.112Z,64.22
2019-02-09T12:05:20.470Z,63.66
2019-02-09T12:07:49.023Z,62.76
2019-02-09T12:10:19.925Z,62.85
2019-02-09T12:12:48.398Z,62.91
2019-02-09T12:15:22.443Z,63.03
2019-02-09T12:17:50.750Z,61.89
2019-02-09T12:20:20.679Z,61.55
2019-02-09T12:22:49.378Z,60.95
2019-02-09T12:25:20.644Z,61.01
2019-02-09T12:27:49.198Z,60.96
2019-02-09T12:30:20.453Z,60.68
2019-02-09T12:32:49.134Z,60.67
2019-02-09T12:35:18.468Z,60.26
2019-02-09T12:37:46.944Z,60.39
2019-02-09T12:40:27.277Z,60.12
2019-02-09T12:42:55.584Z,59.26
2019-02-09T12:45:30.272Z,60.27
2019-02-09T12:47:58.581Z,59.84
2019-02-09T12:50:28.220Z,59.63
2019-02-09T12:52:56.609Z,59.99
2019-02-09T12:55:25.197Z,59.38
2019-02-09T12:57:53.722Z,60.07
2019-02-09T13:00:27.664Z,60.04
2019-02-09T13:02:57.301Z,60.63
2019-02-09T13:05:25.618Z,61.13
2019-02-09T13:07:53.915Z,61.28
2019-02-09T13:10:22.217Z,61.46
2019-02-09T13:12:50.525Z,61.71
2019-02-09T13:15:24.648Z,63.62
2019-02-09T13:17:53.100Z,65.39
2019-02-09T13:20:28.939Z,67.37
2019-02-09T13:22:58.072Z,72.42
2019-02-09T13:25:26.959Z,74.05
2019-02-09T13:27:55.529Z,74.59
2019-02-09T13:30:29.180Z,74.96
2019-02-09T13:32:57.753Z,74.71
2019-02-09T13:35:26.139Z,74.39
2019-02-09T13:37:54.443Z,73.74
2019-02-09T13:40:24.175Z,73.38
2019-02-09T13:42:52.548Z,72.99
2019-02-09T13:45:23.533Z,72.11
2019-02-09T13:47:51.845Z,72.24
2019-02-09T13:50:20.212Z,71.24
2019-02-09T13:52:48.497Z,70.11
2019-02-09T13:55:17.127Z,70.30
2019-02-09T13:57:45.425Z,69.83
2019-02-09T14:00:22.345Z,69.75
2019-02-09T14:02:50.813Z,68.83
2019-02-09T14:05:19.092Z,68.18
2019-02-09T14:07:47.406Z,68.26
2019-02-09T14:10:18.314Z,68.58
2019-02-09T14:12:46.956Z,67.79
2019-02-09T14:15:27.072Z,67.83
2019-02-09T14:17:55.920Z,66.92
2019-02-09T14:20:24.576Z,67.33
2019-02-09T14:22:52.952Z,67.08
2019-02-09T14:25:21.615Z,66.16
2019-02-09T14:27:51.771Z,66.67
2019-02-09T14:30:31.061Z,66.34
2019-02-09T14:33:00.218Z,66.00
2019-02-09T14:35:30.009Z,65.02
2019-02-09T14:37:58.405Z,65.43
2019-02-09T14:40:32.523Z,64.12
2019-02-09T14:43:01.557Z,64.11
2019-02-09T14:45:32.679Z,63.74
2019-02-09T14:48:00.972Z,63.71
2019-02-09T14:50:29.312Z,63.55
2019-02-09T14:52:57.661Z,63.52
2019-02-09T14:55:31.106Z,63.11
2019-02-09T14:57:59.959Z,63.50
2019-02-09T15:00:46.513Z,64.52
2019-02-09T15:03:15.447Z,66.08
2019-02-09T15:05:44.154Z,68.03
2019-02-09T15:08:12.527Z,68.80
2019-02-09T15:10:40.876Z,69.06
2019-02-09T15:13:12.143Z,68.92
2019-02-09T15:15:58.749Z,69.26
2019-02-09T15:18:27.060Z,69.37
2019-02-09T15:20:58.536Z,68.94
2019-02-09T15:23:27.160Z,69.44
2019-02-09T15:25:55.735Z,69.43
2019-02-09T15:28:24.044Z,69.28
2019-02-09T15:30:52.340Z,69.12
2019-02-09T15:33:20.981Z,69.34
2019-02-09T15:35:49.758Z,69.40
2019-02-09T15:38:18.136Z,69.94
2019-02-09T15:40:46.455Z,70.31
2019-02-09T15:43:14.783Z,70.67
2019-02-09T15:45:43.149Z,70.83
2019-02-09T15:48:11.435Z,71.15
2019-02-09T15:50:40.034Z,71.65
2019-02-09T15:53:08.329Z,72.07
2019-02-09T15:55:36.636Z,72.63
2019-02-09T15:58:05.153Z,72.94
2019-02-09T16:00:33.584Z,73.24
2019-02-09T16:03:02.044Z,73.45
2019-02-09T16:05:30.351Z,73.50
2019-02-09T16:07:59.416Z,73.58
2019-02-09T16:10:27.715Z,73.49
2019-02-09T16:12:56.357Z,73.66
2019-02-09T16:15:30.381Z,73.68
2019-02-09T16:17:58.670Z,73.75
2019-02-09T16:20:31.595Z,73.82
2019-02-09T16:22:59.894Z,73.91
2019-02-09T16:25:28.457Z,74.13
2019-02-09T16:27:56.772Z,74.29
2019-02-09T16:30:28.212Z,74.25
2019-02-09T16:32:56.542Z,74.29
2019-02-09T16:35:27.336Z,74.11
2019-02-09T16:37:56.013Z,74.12
2019-02-09T16:40:32.797Z,74.04
2019-02-09T16:43:01.177Z,74.18
2019-02-09T16:45:34.840Z,74.22
2019-02-09T16:48:03.600Z,74.50
2019-02-09T16:50:31.966Z,74.54
2019-02-09T16:53:00.347Z,74.66
2019-02-09T16:55:28.707Z,74.84
2019-02-09T16:57:56.991Z,74.77
2019-02-09T17:00:28.493Z,74.64
2019-02-09T17:02:56.922Z,74.47
2019-02-09T17:05:25.409Z,73.88
2019-02-09T17:07:53.696Z,73.64
2019-02-09T17:10:22.296Z,73.37
2019-02-09T17:12:50.599Z,73.14
2019-02-09T17:15:27.703Z,72.55
2019-02-09T17:17:56.056Z,72.42
2019-02-09T17:20:24.966Z,71.73
2019-02-09T17:22:53.431Z,71.27
2019-02-09T17:25:23.369Z,71.21
2019-02-09T17:27:52.181Z,72.22
2019-02-09T17:30:30.948Z,73.63
2019-02-09T17:32:59.236Z,74.71
2019-02-09T17:35:27.696Z,76.22
2019-02-09T17:37:56.472Z,76.98
2019-02-09T17:40:27.715Z,77.03
2019-02-09T17:42:56.041Z,77.21
2019-02-09T17:45:30.183Z,77.38
2019-02-09T17:47:58.524Z,77.41
2019-02-09T17:50:27.229Z,77.68
2019-02-09T17:52:55.547Z,77.66
2019-02-09T17:55:24.201Z,77.19
2019-02-09T17:57:52.524Z,77.06
2019-02-09T18:00:25.174Z,76.93
2019-02-09T18:02:53.725Z,76.53
2019-02-09T18:05:22.343Z,76.08
2019-02-09T18:07:50.996Z,75.26
2019-02-09T18:10:19.557Z,74.98
2019-02-09T18:12:48.182Z,74.82
2019-02-09T18:15:20.365Z,74.72
2019-02-09T18:17:48.650Z,74.68
2019-02-09T18:20:17.690Z,74.72
2019-02-09T18:22:46.261Z,74.72
2019-02-09T18:25:22.652Z,74.65
2019-02-09T18:27:51.215Z,74.74
2019-02-09T18:30:22.798Z,74.74
2019-02-09T18:32:51.165Z,74.82
2019-02-09T18:35:19.836Z,74.95
2019-02-09T18:37:48.457Z,75.06
2019-02-09T18:40:21.443Z,75.06
2019-02-09T18:42:49.800Z,74.88
2019-02-09T18:45:20.721Z,74.80
2019-02-09T18:47:49.101Z,74.73
2019-02-09T18:50:20.054Z,74.68
2019-02-09T18:52:48.446Z,74.47
2019-02-09T18:55:19.140Z,74.15
2019-02-09T18:57:47.617Z,74.15
2019-02-09T19:00:18.690Z,74.14
2019-02-09T19:02:46.990Z,73.68
2019-02-09T19:05:15.457Z,73.61
2019-02-09T19:07:43.889Z,73.53
2019-02-09T19:10:20.201Z,73.40
2019-02-09T19:12:48.986Z,73.00
2019-02-09T19:15:19.543Z,72.67
2019-02-09T19:17:48.102Z,72.81
2019-02-09T19:20:21.780Z,72.65
2019-02-09T19:22:50.387Z,72.51
2019-02-09T19:25:21.422Z,72.52
2019-02-09T19:27:49.847Z,72.41
2019-02-09T19:30:20.545Z,72.46
2019-02-09T19:32:49.036Z,72.44
2019-02-09T19:35:17.894Z,71.96
2019-02-09T19:37:46.792Z,71.97
2019-02-09T19:40:17.389Z,71.91
2019-02-09T19:42:46.933Z,71.91
2019-02-09T19:45:30.503Z,71.83
2019-02-09T19:47:58.785Z,71.64
2019-02-09T19:50:27.209Z,71.77
2019-02-09T19:52:55.924Z,71.80
2019-02-09T19:55:31.892Z,71.89
2019-02-09T19:58:00.226Z,72.01
2019-02-09T20:00:31.285Z,72.02
2019-02-09T20:02:59.602Z,72.04
2019-02-09T20:05:27.880Z,72.24
2019-02-09T20:07:59.343Z,72.42
2019-02-09T20:10:30.865Z,72.57
2019-02-09T20:12:59.428Z,72.75
2019-02-09T20:15:27.784Z,72.95
2019-02-09T20:17:56.086Z,73.16
2019-02-09T20:20:24.374Z,73.26
2019-02-09T20:22:52.697Z,73.31
2019-02-09T20:25:25.291Z,73.36
2019-02-09T20:28:03.969Z,73.35
2019-02-09T20:30:35.143Z,73.50
2019-02-09T20:33:03.754Z,73.59
2019-02-09T20:35:32.139Z,73.87
2019-02-09T20:38:00.771Z,74.06
2019-02-09T20:40:37.339Z,74.10
2019-02-09T20:43:08.168Z,74.22
2019-02-09T20:45:36.494Z,74.36
2019-02-09T20:48:05.557Z,74.50
2019-02-09T20:50:33.928Z,74.68
2019-02-09T20:53:02.376Z,74.77
2019-02-09T20:55:30.700Z,74.67
2019-02-09T20:57:59.114Z,74.62
2019-02-09T21:00:31.912Z,74.45
2019-02-09T21:03:00.609Z,74.44
2019-02-09T21:05:36.203Z,74.66
2019-02-09T21:07:59.292Z,74.91
2019-02-09T21:10:29.457Z,75.11
2019-02-09T21:12:57.824Z,75.17
2019-02-09T21:15:28.331Z,75.17
2019-02-09T21:17:56.655Z,75.08
2019-02-09T21:20:25.375Z,75.41
2019-02-09T21:22:53.688Z,75.44
2019-02-09T21:25:33.508Z,75.48
2019-02-09T21:28:02.193Z,75.31
2019-02-09T21:30:30.997Z,75.23
2019-02-09T21:32:59.407Z,74.99
2019-02-09T21:35:35.373Z,74.88
2019-02-09T21:38:15.298Z,74.83
2019-02-09T21:40:44.149Z,74.69
2019-02-09T21:43:12.489Z,74.62
2019-02-09T21:45:45.480Z,74.69
2019-02-09T21:48:15.120Z,74.65
2019-02-09T21:50:43.427Z,74.58
2019-02-09T21:53:11.993Z,74.48
2019-02-09T21:55:40.299Z,74.48
2019-02-09T21:58:09.081Z,74.39
2019-02-09T22:00:42.406Z,74.37
2019-02-09T22:03:11.365Z,74.47
2019-02-09T22:05:39.845Z,74.39
2019-02-09T22:08:10.738Z,74.36
2019-02-09T22:10:39.279Z,74.29
2019-02-09T22:13:07.938Z,74.22
2019-02-09T22:15:38.631Z,74.15
2019-02-09T22:18:06.429Z,74.10
2019-02-09T22:20:34.727Z,73.94
2019-02-09T22:23:03.013Z,73.92
2019-02-09T22:25:31.380Z,73.75
2019-02-09T22:27:59.942Z,73.72
2019-02-09T22:30:29.850Z,73.51
2019-02-09T22:32:58.766Z,73.61
2019-02-09T22:35:27.147Z,73.65
2019-02-09T22:37:55.546Z,73.68
2019-02-09T22:40:29.913Z,73.69
2019-02-09T22:42:58.228Z,73.59
2019-02-09T22:45:27.467Z,73.80
2019-02-09T22:47:56.714Z,74.14
2019-02-09T22:50:27.360Z,74.53
2019-02-09T22:52:55.815Z,74.67
2019-02-09T22:55:24.202Z,74.56
2019-02-09T22:57:52.787Z,74.40
2019-02-09T23:00:44.913Z,74.51
2019-02-09T23:03:13.288Z,74.51
2019-02-09T23:06:13.549Z,74.50
2019-02-09T23:08:48.121Z,74.50
2019-02-09T23:11:16.723Z,74.69
2019-02-09T23:13:45.134Z,74.61
2019-02-09T23:16:13.424Z,74.82
2019-02-09T23:18:41.708Z,74.75
2019-02-09T23:21:10.024Z,74.69
2019-02-09T23:23:38.306Z,74.73
2019-02-09T23:26:06.685Z,74.66
2019-02-09T23:28:34.995Z,74.66
2019-02-09T23:31:03.551Z,74.53
2019-02-09T23:33:32.125Z,74.47
2019-02-09T23:36:00.717Z,74.52
2019-02-09T23:38:29.289Z,74.48
2019-02-09T23:40:57.606Z,74.49
2019-02-09T23:43:25.889Z,74.52
2019-02-09T23:45:54.553Z,74.59
2019-02-09T23:48:22.859Z,74.56
2019-02-09T23:50:51.143Z,74.53
2019-02-09T23:53:19.446Z,74.56
2019-02-09T23:55:47.738Z,74.55
2019-02-09T23:58:16.050Z,74.74
